Time;durP1;ratioP1;P1;durP2;ratioP2;P2;SDS_P1;SDS_P2;PMS_P1;PMS_P2;Temp;Humidity;BMP_temperature;BMP_pressure;BME280_temperature;BME280_humidity;BME280_pressure;Samples;Min_cycle;Max_cycle;Signal;HPM_P1;HPM_P2
2023/05/16 15:56:39;;;;;;;66.97;33.67;;;13.80;99.90;;;;;;4899266;29;20571;-90
2023/05/16 15:59:06;;;;;;;37.97;20.20;;;13.70;99.90;;;;;;4896547;29;20200;-90
2023/05/16 16:01:33;;;;;;;62.47;31.93;;;13.70;99.90;;;;;;4897104;29;20212;-90
2023/05/16 16:03:59;;;;;;;51.60;31.57;;;13.80;1.00;;;;;;4896081;29;20230;-90
2023/05/16 16:06:26;;;;;;;36.97;19.43;;;13.80;99.90;;;;;;4903579;29;20213;-90
2023/05/16 16:08:53;;;;;;;45.13;24.87;;;13.80;1.00;;;;;;4911379;29;20205;-91
2023/05/16 16:11:21;;;;;;;55.33;33.93;;;13.90;99.90;;;;;;4901652;29;20209;-91
2023/05/16 16:13:49;;;;;;;36.37;25.17;;;14.10;99.90;;;;;;4901098;29;20212;-90
2023/05/16 16:16:16;;;;;;;12.90;6.57;;;14.40;99.90;;;;;;4901806;29;20229;-92
2023/05/16 16:18:44;;;;;;;31.07;17.03;;;14.60;99.90;;;;;;4901205;29;20288;-91
2023/05/16 16:21:11;;;;;;;16.20;10.73;;;14.70;99.90;;;;;;4905913;29;20206;-90
2023/05/16 16:23:38;;;;;;;47.77;35.03;;;14.90;99.90;;;;;;4904699;29;20229;-90
2023/05/16 16:26:05;;;;;;;38.42;26.50;;;14.90;99.90;;;;;;4890520;29;20208;-91
2023/05/16 16:28:32;;;;;;;41.43;24.63;;;14.90;99.90;;;;;;4899301;29;20200;-91
2023/05/16 16:31:00;;;;;;;59.28;36.08;;;15.00;99.10;;;;;;4903038;29;20208;-90
2023/05/16 16:33:27;;;;;;;31.75;19.00;;;15.00;99.90;;;;;;4899455;29;20203;-90
2023/05/16 16:35:54;;;;;;;14.48;8.40;;;15.00;60.40;;;;;;4899277;29;20200;-92
2023/05/16 16:38:21;;;;;;;30.65;16.73;;;15.00;54.70;;;;;;4901209;29;20205;-92
2023/05/16 16:40:48;;;;;;;28.40;17.65;;;14.90;70.40;;;;;;4906929;29;20666;-95
2023/05/16 16:43:14;;;;;;;18.63;10.00;;;14.90;57.70;;;;;;4906457;29;20229;-92
2023/05/16 16:45:41;;;;;;;52.57;31.33;;;15.00;52.30;;;;;;4902286;29;20205;-95
2023/05/16 16:48:10;;;;;;;30.20;17.00;;;15.00;43.50;;;;;;4905830;29;20217;-92
2023/05/16 16:50:37;;;;;;;17.10;10.77;;;15.00;26.00;;;;;;4905371;29;20667;-93
2023/05/16 16:53:04;;;;;;;14.05;8.73;;;14.90;40.10;;;;;;4897969;29;20208;-94
2023/05/16 16:55:31;;;;;;;21.02;10.70;;;14.90;63.40;;;;;;4923720;29;20644;-94
2023/05/16 16:57:57;;;;;;;18.90;10.07;;;14.90;42.30;;;;;;4920947;29;20200;-94
2023/05/16 17:00:24;;;;;;;14.27;7.50;;;14.90;44.10;;;;;;4920178;29;20206;-94
2023/05/16 17:02:51;;;;;;;11.37;7.80;;;14.90;48.30;;;;;;4931030;29;20226;-94
2023/05/16 17:05:19;;;;;;;18.00;9.60;;;14.80;56.70;;;;;;4927062;29;20237;-94
2023/05/16 17:07:46;;;;;;;18.40;10.45;;;14.80;87.80;;;;;;4933340;29;20198;-93
2023/05/16 17:10:13;;;;;;;16.90;10.40;;;14.80;97.80;;;;;;4925391;29;20217;-94
2023/05/16 17:12:47;;;;;;;21.92;12.60;;;14.70;99.90;;;;;;4919762;29;20294;-93
2023/05/16 17:15:14;;;;;;;19.02;11.80;;;14.70;99.90;;;;;;4918380;29;20202;-94
2023/05/16 17:17:41;;;;;;;21.13;13.27;;;14.60;99.90;;;;;;4928193;29;20267;-95
2023/05/16 17:20:11;;;;;;;19.67;11.75;;;14.50;99.90;;;;;;4920615;29;20215;-95
2023/05/16 17:22:40;;;;;;;22.43;12.70;;;14.50;99.90;;;;;;4919079;29;20209;-94
2023/05/16 17:25:07;;;;;;;24.03;13.93;;;14.30;99.90;;;;;;4929961;29;20206;-94
2023/05/16 17:27:34;;;;;;;25.87;15.73;;;14.30;99.90;;;;;;4927846;29;20212;-94
2023/05/16 17:30:01;;;;;;;19.57;13.13;;;14.30;99.90;;;;;;4921423;29;20209;-95
2023/05/16 17:32:28;;;;;;;24.63;14.27;;;14.20;99.90;;;;;;4919449;29;20213;-93
2023/05/16 17:34:55;;;;;;;21.33;12.80;;;14.10;99.90;;;;;;4910069;29;20203;-95
2023/05/16 17:37:22;;;;;;;22.43;11.73;;;14.10;99.90;;;;;;4929804;29;20296;-94
2023/05/16 17:39:51;;;;;;;20.43;12.40;;;14.00;99.90;;;;;;4929629;29;20234;-94
2023/05/16 17:42:17;;;;;;;23.30;14.07;;;14.00;99.90;;;;;;4925602;29;20208;-95
2023/05/16 17:44:44;;;;;;;20.30;13.63;;;13.90;99.90;;;;;;4924644;29;20235;-95
2023/05/16 17:47:12;;;;;;;18.87;11.90;;;13.80;99.90;;;;;;4927313;29;20220;-95
2023/05/16 17:49:39;;;;;;;21.73;13.53;;;13.80;99.90;;;;;;4929760;29;20244;-95
2023/05/16 17:52:07;;;;;;;18.53;11.87;;;13.70;99.90;;;;;;4926435;29;20208;-94
2023/05/16 17:54:35;;;;;;;20.03;12.53;;;13.70;99.90;;;;;;4920267;29;20224;-94
2023/05/16 17:57:04;;;;;;;21.03;13.60;;;13.60;1.00;;;;;;4938101;29;20222;-95
2023/05/16 17:59:31;;;;;;;22.63;15.90;;;13.60;1.00;;;;;;4924562;29;20219;-95
2023/05/16 18:01:58;;;;;;;31.70;18.93;;;13.50;1.00;;;;;;4931503;29;20196;-95
2023/05/16 18:04:25;;;;;;;18.53;11.67;;;13.50;1.00;;;;;;4921008;29;20228;-95
2023/05/16 18:06:53;;;;;;;22.17;12.23;;;13.50;1.00;;;;;;4942484;29;20204;-95
2023/05/16 18:09:20;;;;;;;20.90;13.33;;;13.40;1.00;;;;;;4926994;29;20204;-94
2023/05/16 18:11:47;;;;;;;17.63;12.23;;;13.40;1.00;;;;;;4923917;29;20302;-95
2023/05/16 18:14:16;;;;;;;18.93;11.83;;;13.50;1.00;;;;;;4923847;29;20205;-92
2023/05/16 18:16:43;;;;;;;16.67;10.90;;;13.50;1.00;;;;;;4921610;29;20208;-95
2023/05/16 18:19:11;;;;;;;20.30;11.73;;;13.50;1.00;;;;;;4918023;29;20204;-95
2023/05/16 18:21:39;;;;;;;18.43;11.80;;;13.50;1.00;;;;;;4918458;29;20236;-94
2023/05/16 18:24:07;;;;;;;21.47;12.73;;;13.50;1.00;;;;;;4922483;29;20223;-95
2023/05/16 18:26:34;;;;;;;22.53;12.37;;;13.50;1.00;;;;;;4918721;29;20210;-95
2023/05/16 18:29:02;;;;;;;25.50;12.60;;;13.50;1.00;;;;;;4922310;29;20231;-95
2023/05/16 18:31:32;;;;;;;19.77;13.60;;;13.50;1.00;;;;;;4919560;29;20216;-94
2023/05/16 18:34:00;;;;;;;22.70;15.53;;;13.40;1.00;;;;;;4919718;29;20194;-95
2023/05/16 18:36:27;;;;;;;26.30;15.43;;;13.30;1.00;;;;;;4928025;29;20258;-95
2023/05/16 18:38:54;;;;;;;23.17;14.80;;;13.20;1.00;;;;;;4926589;29;20198;-96
2023/05/16 18:41:21;;;;;;;23.70;14.40;;;13.10;1.00;;;;;;4926268;29;20207;-96
2023/05/16 18:43:48;;;;;;;21.90;13.20;;;13.10;1.00;;;;;;4923665;29;20306;-96
2023/05/16 18:46:15;;;;;;;17.40;11.87;;;13.00;1.00;;;;;;4923631;29;20702;-94
2023/05/16 18:48:43;;;;;;;20.37;12.27;;;12.80;1.00;;;;;;4921783;29;20330;-96
2023/05/16 18:51:10;;;;;;;25.77;15.83;;;12.80;62.90;;;;;;4922475;29;20222;-94
2023/05/16 18:53:37;;;;;;;22.90;14.27;;;12.70;99.90;;;;;;4921015;29;20216;-96
2023/05/16 18:56:05;;;;;;;23.20;14.00;;;12.60;99.90;;;;;;4919796;29;20317;-95
2023/05/16 18:58:31;;;;;;;22.17;12.97;;;12.50;99.90;;;;;;4934458;29;20638;-96
2023/05/16 19:00:58;;;;;;;18.97;12.70;;;12.40;99.90;;;;;;4935814;29;20198;-96
2023/05/16 19:03:25;;;;;;;23.50;13.07;;;12.40;99.90;;;;;;4923404;29;20585;-96
2023/05/16 19:05:53;;;;;;;21.27;12.50;;;12.20;1.00;;;;;;4919414;29;20289;-93
2023/05/16 19:08:22;;;;;;;21.63;11.30;;;12.20;1.00;;;;;;4932077;29;20284;-95
2023/05/16 19:10:49;;;;;;;21.73;12.33;;;12.10;1.00;;;;;;4929638;29;20205;-96
2023/05/16 19:13:16;;;;;;;16.50;11.33;;;12.00;1.00;;;;;;4920631;29;20212;-94
2023/05/16 19:15:43;;;;;;;17.77;11.43;;;11.90;1.00;;;;;;4922827;29;20251;-96
2023/05/16 19:18:10;;;;;;;25.20;12.83;;;11.80;1.00;;;;;;4933032;29;20232;-96
2023/05/16 19:20:37;;;;;;;18.70;11.93;;;11.60;1.00;;;;;;4930037;29;20215;-95
2023/05/16 19:23:06;;;;;;;14.07;10.97;;;11.50;94.20;;;;;;4905571;29;20264;-96
2023/05/16 19:25:33;;;;;;;16.67;9.60;;;11.40;99.90;;;;;;4926290;29;20286;-95
2023/05/16 19:28:00;;;;;;;16.83;10.30;;;11.40;99.90;;;;;;4930315;29;20214;-96
2023/05/16 19:30:27;;;;;;;15.67;10.37;;;11.30;99.90;;;;;;4938777;29;20207;-96
2023/05/16 19:32:54;;;;;;;17.00;10.97;;;11.30;1.00;;;;;;4923251;29;20220;-96
2023/05/16 19:35:21;;;;;;;17.47;11.30;;;11.20;1.00;;;;;;4929780;29;20224;-96
2023/05/16 19:37:47;;;;;;;18.93;11.50;;;11.10;1.00;;;;;;4928596;29;20336;-96
2023/05/16 19:40:16;;;;;;;19.03;13.13;;;11.10;1.00;;;;;;4931443;29;20256;-96
2023/05/16 19:42:43;;;;;;;19.97;13.30;;;11.10;1.00;;;;;;4924262;29;20231;-96
2023/05/16 19:45:10;;;;;;;25.27;13.67;;;10.90;1.00;;;;;;4923104;29;20287;-96
2023/05/16 19:47:37;;;;;;;23.00;14.13;;;10.90;31.10;;;;;;4924138;29;20267;-96
2023/05/16 19:50:05;;;;;;;22.00;13.23;;;10.90;99.90;;;;;;4919653;29;20210;-95
2023/05/16 19:52:32;;;;;;;20.00;13.23;;;10.80;99.90;;;;;;4923652;29;20211;-95
2023/05/16 19:54:59;;;;;;;18.07;12.33;;;10.80;99.90;;;;;;4935687;29;20255;-96
2023/05/16 19:57:28;;;;;;;22.23;13.17;;;10.70;99.90;;;;;;4923975;29;20205;-96
2023/05/16 19:59:55;;;;;;;22.33;12.93;;;10.70;1.00;;;;;;4924046;29;20202;-96
2023/05/16 20:02:22;;;;;;;19.93;12.40;;;10.70;1.00;;;;;;4921938;29;20218;-96
2023/05/16 20:04:49;;;;;;;20.10;11.73;;;10.70;1.00;;;;;;4921756;29;20321;-96
2023/05/16 20:07:15;;;;;;;17.73;11.80;;;10.60;1.00;;;;;;4926289;29;20208;-94
2023/05/16 20:09:42;;;;;;;22.50;12.77;;;10.60;1.00;;;;;;4931942;29;20226;-94
2023/05/16 20:12:11;;;;;;;20.23;12.20;;;10.60;1.00;;;;;;4933267;29;20663;-95
2023/05/16 20:14:40;;;;;;;20.53;13.10;;;10.50;1.00;;;;;;4934497;29;20293;-96
2023/05/16 20:17:07;;;;;;;18.20;11.87;;;10.50;1.00;;;;;;4932271;29;20208;-96
2023/05/16 20:19:36;;;;;;;18.30;12.20;;;10.50;1.00;;;;;;4928905;29;20291;-95
2023/05/16 20:22:03;;;;;;;19.77;12.83;;;10.50;51.40;;;;;;4941660;29;20207;-96
2023/05/16 20:24:30;;;;;;;21.37;13.33;;;10.40;99.90;;;;;;4920032;29;20228;-96
2023/05/16 20:26:56;;;;;;;23.53;13.03;;;10.40;99.90;;;;;;4928328;29;20289;-96
2023/05/16 20:29:23;;;;;;;19.23;12.50;;;10.40;99.90;;;;;;4931176;29;20231;-96
2023/05/16 20:31:51;;;;;;;22.80;13.03;;;10.40;99.90;;;;;;4944922;29;20200;-96
2023/05/16 20:34:18;;;;;;;27.03;13.37;;;10.40;99.90;;;;;;4941966;29;20286;-96
